Welcome to the New NWS' Forecast!
Most changes are behind the scenes, but click here for differences you might notice.

Terminal Aerodrome Forecast (TAF)

Issued by National Weather Service (NWS)

                            
000
FTUS42 KMFL 181456 AAA
TAFMIA
TAF AMD
KMIA 181456Z 1815/1918 08010KT P6SM SCT030
     FM181600 08012KT P6SM SCT025 SCT250
     FM190100 08010KT P6SM FEW035 SCT250
     FM190600 08006KT P6SM SCT030
     FM191500 08010KT P6SM SCT030=